Time;durP1;ratioP1;P1;durP2;ratioP2;P2;SDS_P1;SDS_P2;PMS_P1;PMS_P2;Temp;Humidity;BMP_temperature;BMP_pressure;BME280_temperature;BME280_humidity;BME280_pressure;Samples;Min_cycle;Max_cycle;Signal;HPM_P1;HPM_P2
2023/04/01 04:02:16;;;;;;;0.40;0.40;;;9.70;99.90;;;;;;5060287;23;20243;-72
2023/04/01 04:04:42;;;;;;;0.85;0.85;;;9.70;99.90;;;;;;4899130;29;20639;-71
2023/04/01 04:07:09;;;;;;;1.95;1.85;;;9.70;99.90;;;;;;4905365;29;20269;-71
2023/04/01 04:09:36;;;;;;;1.15;1.15;;;9.70;99.90;;;;;;4913071;29;20215;-72
2023/04/01 04:12:05;;;;;;;2.45;1.50;;;9.70;99.90;;;;;;4897123;29;20238;-72
2023/04/01 04:14:31;;;;;;;0.88;0.88;;;9.70;99.90;;;;;;4889317;29;20211;-71
2023/04/01 04:16:58;;;;;;;1.55;1.02;;;9.70;99.90;;;;;;4901732;23;22321;-69
2023/04/01 04:19:26;;;;;;;9.20;0.93;;;9.70;99.90;;;;;;4894455;29;20686;-68
2023/04/01 04:21:53;;;;;;;1.15;1.15;;;9.70;99.90;;;;;;4890091;29;20211;-68
2023/04/01 04:24:20;;;;;;;1.27;1.27;;;9.70;99.90;;;;;;4891037;29;20215;-68
2023/04/01 04:26:46;;;;;;;0.75;0.75;;;9.70;99.90;;;;;;4897739;29;20326;-68
2023/04/01 04:29:14;;;;;;;0.80;0.80;;;9.70;99.90;;;;;;4897560;29;20218;-69
2023/04/01 04:31:40;;;;;;;0.90;0.90;;;9.80;99.90;;;;;;4898065;29;20215;-69
2023/04/01 04:34:07;;;;;;;1.48;1.38;;;9.70;99.90;;;;;;4891556;29;20222;-69
2023/04/01 04:36:35;;;;;;;11.50;1.27;;;9.70;99.90;;;;;;4889468;29;20208;-70
2023/04/01 04:39:03;;;;;;;1.05;1.00;;;9.70;99.90;;;;;;4897818;29;20219;-70
2023/04/01 04:41:29;;;;;;;1.08;1.08;;;9.70;99.90;;;;;;4894040;29;20324;-70
2023/04/01 04:43:58;;;;;;;2.08;0.65;;;9.70;99.90;;;;;;4899280;29;20222;-69
2023/04/01 04:46:25;;;;;;;4.63;0.98;;;9.70;99.90;;;;;;4891549;29;20254;-69
2023/04/01 04:48:52;;;;;;;2.30;1.10;;;9.70;99.90;;;;;;4898727;29;20239;-69
2023/04/01 04:51:20;;;;;;;0.95;0.70;;;9.70;99.90;;;;;;4896699;29;20215;-70
2023/04/01 04:53:48;;;;;;;0.55;0.50;;;9.70;99.90;;;;;;4891834;29;20211;-68
2023/04/01 04:56:19;;;;;;;1.23;1.17;;;9.70;99.90;;;;;;4891867;29;20612;-68
2023/04/01 04:58:45;;;;;;;0.93;0.90;;;9.70;99.90;;;;;;4892531;29;20231;-68
2023/04/01 05:01:14;;;;;;;1.48;1.17;;;9.70;99.90;;;;;;4891923;29;20243;-68
2023/04/01 05:03:42;;;;;;;1.23;1.23;;;9.70;99.90;;;;;;4898221;29;20215;-70
2023/04/01 05:06:09;;;;;;;0.85;0.73;;;9.70;99.90;;;;;;4893931;29;20220;-68
2023/04/01 05:08:37;;;;;;;1.30;1.30;;;9.70;99.90;;;;;;4891504;29;20234;-69
2023/04/01 05:11:09;;;;;;;1.02;1.02;;;9.70;99.90;;;;;;4882949;29;20275;-69
2023/04/01 05:13:36;;;;;;;1.25;1.25;;;9.70;99.90;;;;;;4890916;29;20208;-69
2023/04/01 05:16:03;;;;;;;2.20;2.10;;;9.70;99.90;;;;;;4891082;29;20203;-68
2023/04/01 05:18:30;;;;;;;3.40;1.83;;;9.70;99.90;;;;;;4897443;29;20258;-69
2023/04/01 05:20:56;;;;;;;2.95;0.90;;;9.70;99.90;;;;;;4900695;29;20214;-69
2023/04/01 05:23:23;;;;;;;0.80;0.80;;;9.70;99.90;;;;;;4893870;29;20254;-68
2023/04/01 05:25:50;;;;;;;0.77;0.77;;;9.70;99.90;;;;;;4894851;29;20234;-69
2023/04/01 05:28:19;;;;;;;1.08;1.08;;;9.70;99.90;;;;;;4886167;29;20744;-69
2023/04/01 05:30:46;;;;;;;1.13;1.13;;;9.70;99.90;;;;;;4897252;29;20215;-70
2023/04/01 05:33:14;;;;;;;1.98;1.73;;;9.70;99.90;;;;;;4885151;29;20246;-69
2023/04/01 05:35:41;;;;;;;2.50;2.40;;;9.80;99.90;;;;;;4887914;29;20207;-69
2023/04/01 05:38:08;;;;;;;4.95;1.77;;;9.80;99.90;;;;;;4897519;29;20274;-69
2023/04/01 05:40:35;;;;;;;1.05;1.05;;;9.80;99.90;;;;;;4890124;29;20599;-68
2023/04/01 05:43:01;;;;;;;3.25;1.48;;;9.80;99.90;;;;;;4888667;29;20291;-69
2023/04/01 05:45:30;;;;;;;0.70;0.70;;;9.80;99.90;;;;;;4895135;29;20573;-69
2023/04/01 05:47:56;;;;;;;1.08;0.75;;;9.80;99.90;;;;;;4890392;29;20227;-69
2023/04/01 05:50:23;;;;;;;1.27;1.27;;;9.80;99.90;;;;;;4883504;29;20258;-69
2023/04/01 05:52:49;;;;;;;2.72;2.53;;;9.80;99.90;;;;;;4885512;29;20207;-68
2023/04/01 05:55:16;;;;;;;1.85;1.75;;;9.80;99.90;;;;;;4889738;29;20692;-68
2023/04/01 05:57:45;;;;;;;0.68;0.68;;;9.90;99.90;;;;;;4887848;29;20223;-68
2023/04/01 06:00:13;;;;;;;1.30;0.80;;;9.90;99.90;;;;;;4888895;29;20219;-69
2023/04/01 06:02:42;;;;;;;2.28;2.08;;;9.90;99.90;;;;;;4892626;29;20214;-69
2023/04/01 06:05:17;;;;;;;1.30;1.00;;;9.90;99.90;;;;;;4892716;29;20609;-70
2023/04/01 06:07:44;;;;;;;1.13;1.10;;;9.90;99.90;;;;;;4896266;29;20239;-68
2023/04/01 06:10:15;;;;;;;0.90;0.90;;;10.00;99.90;;;;;;4881668;29;20208;-69
2023/04/01 06:12:51;;;;;;;2.15;0.95;;;10.00;99.90;;;;;;4884314;29;20222;-69
2023/04/01 06:15:35;;;;;;;1.40;1.30;;;10.00;99.90;;;;;;4885346;29;20222;-69
2023/04/01 06:18:41;;;;;;;2.20;2.05;;;10.00;99.90;;;;;;4894814;29;20242;-69
2023/04/01 06:21:18;;;;;;;2.70;2.50;;;10.00;99.90;;;;;;4898040;29;20203;-68
2023/04/01 06:24:00;;;;;;;2.00;2.00;;;10.00;99.90;;;;;;4880128;29;20219;-69
2023/04/01 06:26:35;;;;;;;1.70;1.60;;;10.10;99.90;;;;;;4885849;29;20239;-69
2023/04/01 06:29:30;;;;;;;2.70;1.52;;;10.10;99.90;;;;;;4888912;29;20258;-70
2023/04/01 06:32:16;;;;;;;1.42;1.42;;;10.10;99.90;;;;;;4887509;29;20227;-70
2023/04/01 06:35:12;;;;;;;1.30;1.30;;;10.10;99.90;;;;;;4889464;29;20207;-70
2023/04/01 06:38:03;;;;;;;2.80;2.40;;;10.10;99.90;;;;;;4888990;29;20288;-69
2023/04/01 06:41:00;;;;;;;1.02;1.02;;;10.10;99.90;;;;;;4884306;29;20208;-69
2023/04/01 06:43:35;;;;;;;2.28;2.20;;;10.10;99.90;;;;;;4870639;29;20210;-69
2023/04/01 06:46:07;;;;;;;1.15;1.15;;;10.10;99.90;;;;;;4883527;29;20680;-69
2023/04/01 06:48:54;;;;;;;0.82;0.82;;;10.10;99.90;;;;;;4892412;29;20230;-69
2023/04/01 06:51:31;;;;;;;1.00;1.00;;;9.80;99.90;;;;;;4889544;29;20212;-69
2023/04/01 06:54:05;;;;;;;0.40;0.40;;;9.60;99.90;;;;;;4894529;29;20206;-62
2023/04/01 06:56:33;;;;;;;1.17;0.93;;;9.40;99.90;;;;;;4891708;29;20210;-65
2023/04/01 06:59:05;;;;;;;0.40;0.40;;;9.20;99.90;;;;;;4891377;29;20611;-64
2023/04/01 07:01:36;;;;;;;0.30;0.30;;;9.20;99.90;;;;;;4888594;29;20195;-64
2023/04/01 07:04:07;;;;;;;0.20;0.20;;;9.10;99.90;;;;;;4893112;29;20218;-65
2023/04/01 07:06:38;;;;;;;0.80;0.80;;;9.00;99.90;;;;;;4881288;29;20215;-65
2023/04/01 07:09:11;;;;;;;0.20;0.20;;;8.90;99.90;;;;;;4886346;29;20213;-65
2023/04/01 07:11:39;;;;;;;0.20;0.20;;;8.80;99.90;;;;;;4893729;29;20207;-65
2023/04/01 07:14:14;;;;;;;1.52;1.33;;;8.70;99.90;;;;;;4882059;29;20204;-65
2023/04/01 07:16:44;;;;;;;1.15;0.60;;;8.70;99.90;;;;;;4882181;29;20200;-65
2023/04/01 07:19:17;;;;;;;0.50;0.50;;;8.60;99.90;;;;;;4890510;29;20234;-65
2023/04/01 07:21:48;;;;;;;1.00;0.47;;;8.60;99.90;;;;;;4891221;29;20216;-65
2023/04/01 07:24:20;;;;;;;0.32;0.32;;;8.60;99.90;;;;;;4892471;29;20215;-64
2023/04/01 07:26:47;;;;;;;0.47;0.47;;;8.50;99.90;;;;;;4892203;29;20239;-65
2023/04/01 07:29:15;;;;;;;0.82;0.82;;;8.40;99.90;;;;;;4877987;29;20222;-65
2023/04/01 07:32:10;;;;;;;0.85;0.85;;;8.40;99.90;;;;;;4890700;29;20215;-64
2023/04/01 07:34:44;;;;;;;0.30;0.30;;;8.30;99.90;;;;;;4890023;29;20235;-65
2023/04/01 07:37:15;;;;;;;0.30;0.30;;;8.20;99.90;;;;;;4885375;29;20222;-64
2023/04/01 07:39:52;;;;;;;2.40;0.90;;;8.20;99.90;;;;;;4883579;29;20215;-64
2023/04/01 07:42:32;;;;;;;0.20;0.20;;;8.20;99.90;;;;;;4887276;29;20207;-65
2023/04/01 07:45:05;;;;;;;1.00;0.40;;;8.10;99.90;;;;;;4887898;29;20237;-64
2023/04/01 07:47:52;;;;;;;0.35;0.35;;;8.10;99.90;;;;;;4893958;29;20231;-65
2023/04/01 07:50:26;;;;;;;0.30;0.30;;;8.00;99.90;;;;;;4886891;29;20295;-65
2023/04/01 07:53:07;;;;;;;0.10;0.10;;;8.00;99.90;;;;;;4890126;29;20210;-64
2023/04/01 07:55:38;;;;;;;0.10;0.10;;;8.00;99.90;;;;;;4883347;29;20547;-64
2023/04/01 07:58:15;;;;;;;0.20;0.20;;;8.00;99.90;;;;;;4890652;29;20241;-64
2023/04/01 08:00:48;;;;;;;0.60;0.60;;;7.90;99.90;;;;;;4891177;29;20290;-63
2023/04/01 08:03:31;;;;;;;0.35;0.35;;;8.00;99.90;;;;;;4884791;29;20311;-64
2023/04/01 08:06:03;;;;;;;0.50;0.20;;;8.00;99.90;;;;;;4891513;29;20223;-65
2023/04/01 08:08:43;;;;;;;0.20;0.20;;;8.00;99.90;;;;;;4892860;29;20254;-65
2023/04/01 08:11:20;;;;;;;0.32;0.32;;;8.00;99.90;;;;;;4883634;29;20571;-63
2023/04/01 08:13:58;;;;;;;0.32;0.32;;;7.90;99.90;;;;;;4892945;29;20220;-65
2023/04/01 08:16:33;;;;;;;0.38;0.38;;;8.00;99.90;;;;;;4884489;29;20321;-64
2023/04/01 08:19:10;;;;;;;0.20;0.20;;;8.00;99.90;;;;;;4887835;29;20223;-65
2023/04/01 08:21:43;;;;;;;0.32;0.32;;;7.90;99.90;;;;;;4892628;29;20217;-64
2023/04/01 08:24:21;;;;;;;0.57;0.57;;;7.90;99.90;;;;;;4888300;29;20210;-64
2023/04/01 08:26:53;;;;;;;0.30;0.30;;;7.90;99.90;;;;;;4883714;29;20269;-65
2023/04/01 08:29:23;;;;;;;0.30;0.30;;;7.80;99.90;;;;;;4886385;29;20572;-65
2023/04/01 08:31:55;;;;;;;0.20;0.20;;;7.80;99.90;;;;;;4894510;29;20218;-65
2023/04/01 08:34:26;;;;;;;0.20;0.20;;;7.80;99.90;;;;;;4891842;29;20242;-65
2023/04/01 08:37:00;;;;;;;0.20;0.20;;;7.80;99.90;;;;;;4891631;29;20231;-64
2023/04/01 08:39:32;;;;;;;0.10;0.10;;;7.80;99.90;;;;;;4882294;29;20302;-65
2023/04/01 08:42:31;;;;;;;0.50;0.50;;;7.70;99.90;;;;;;4886428;29;20259;-62
2023/04/01 08:45:11;;;;;;;0.20;0.20;;;7.70;99.90;;;;;;4883745;29;20208;-62
2023/04/01 08:47:53;;;;;;;0.52;0.52;;;7.70;99.90;;;;;;4894122;29;20243;-62
2023/04/01 08:50:51;;;;;;;0.20;0.20;;;7.70;99.90;;;;;;4887149;29;20207;-63
2023/04/01 08:53:28;;;;;;;0.20;0.20;;;7.70;99.90;;;;;;4883476;29;20215;-63
2023/04/01 08:56:07;;;;;;;0.43;0.40;;;7.70;99.90;;;;;;4888816;29;20229;-63
2023/04/01 08:58:54;;;;;;;0.20;0.20;;;7.70;99.90;;;;;;4888002;29;20665;-63
2023/04/01 09:01:37;;;;;;;0.30;0.30;;;7.70;99.90;;;;;;4880827;29;20243;-64
2023/04/01 09:04:24;;;;;;;0.30;0.30;;;7.60;99.90;;;;;;4886504;29;20211;-63
2023/04/01 09:07:12;;;;;;;0.20;0.20;;;7.70;99.90;;;;;;4893308;29;20200;-63
2023/04/01 09:09:54;;;;;;;0.10;0.10;;;7.70;99.90;;;;;;4885356;29;20640;-62
2023/04/01 09:12:40;;;;;;;0.57;0.57;;;7.80;99.90;;;;;;4884565;29;20215;-70
2023/04/01 09:15:33;;;;;;;0.20;0.20;;;7.80;99.90;;;;;;4884895;29;20285;-69
2023/04/01 09:18:35;;;;;;;0.20;0.20;;;7.80;99.90;;;;;;4894720;29;20239;-68
2023/04/01 09:21:23;;;;;;;0.20;0.20;;;7.80;99.90;;;;;;4859484;29;20211;-69
2023/04/01 09:24:27;;;;;;;0.10;0.10;;;7.70;99.90;;;;;;4889813;29;20200;-70
2023/04/01 09:27:03;;;;;;;0.28;0.28;;;7.70;99.90;;;;;;4886042;29;20231;-71
2023/04/01 09:29:54;;;;;;;0.90;0.90;;;7.60;99.90;;;;;;4890057;29;20620;-69
2023/04/01 09:32:53;;;;;;;0.10;0.10;;;7.60;99.90;;;;;;4861259;29;20207;-69
2023/04/01 09:35:39;;;;;;;0.10;0.10;;;7.60;99.90;;;;;;4897283;29;20207;-69
2023/04/01 09:38:20;;;;;;;0.30;0.30;;;7.50;99.90;;;;;;4898483;29;20228;-70
2023/04/01 09:40:54;;;;;;;0.90;0.90;;;7.60;99.90;;;;;;4895614;29;20219;-70
2023/04/01 09:43:27;;;;;;;0.32;0.32;;;7.60;99.90;;;;;;4893336;29;20603;-70
2023/04/01 09:46:07;;;;;;;1.13;0.25;;;7.70;99.90;;;;;;4896848;29;20200;-70
2023/04/01 09:49:12;;;;;;;0.47;0.30;;;7.60;99.90;;;;;;4885339;29;20692;-70
2023/04/01 09:51:45;;;;;;;0.30;0.30;;;7.50;99.90;;;;;;4864244;29;20218;-70
2023/04/01 09:54:28;;;;;;;0.30;0.30;;;7.50;99.90;;;;;;4894300;29;20215;-69
2023/04/01 09:57:25;;;;;;;0.40;0.40;;;7.60;99.90;;;;;;4891935;29;20227;-69
2023/04/01 10:00:16;;;;;;;0.40;0.40;;;7.60;99.90;;;;;;4886554;29;20219;-70
2023/04/01 10:03:17;;;;;;;0.50;0.50;;;7.60;99.90;;;;;;4882273;29;20219;-70
2023/04/01 10:06:25;;;;;;;0.20;0.20;;;7.60;99.90;;;;;;4890813;29;20214;-70
2023/04/01 10:09:19;;;;;;;0.50;0.50;;;7.70;99.90;;;;;;4890871;29;20239;-71
2023/04/01 10:12:12;;;;;;;0.70;0.70;;;7.70;99.90;;;;;;4889979;29;20223;-70
2023/04/01 10:15:05;;;;;;;0.50;0.50;;;7.70;99.90;;;;;;4893956;29;20211;-70
2023/04/01 10:18:11;;;;;;;0.10;0.10;;;7.80;99.90;;;;;;4890134;29;20330;-71
2023/04/01 10:21:06;;;;;;;0.30;0.30;;;7.70;99.90;;;;;;4861495;29;20362;-70
2023/04/01 10:23:54;;;;;;;0.20;0.20;;;7.70;99.90;;;;;;4885407;29;20220;-70
2023/04/01 10:27:13;;;;;;;1.10;1.10;;;7.70;99.90;;;;;;4888962;29;20203;-73
2023/04/01 10:30:05;;;;;;;0.60;0.60;;;7.70;99.90;;;;;;4881843;29;20303;-70
2023/04/01 10:32:59;;;;;;;0.77;0.70;;;7.80;99.90;;;;;;4890881;29;20234;-71
2023/04/01 10:36:04;;;;;;;0.50;0.50;;;7.80;99.90;;;;;;4895866;29;20249;-71
2023/04/01 10:39:03;;;;;;;0.40;0.40;;;7.80;99.90;;;;;;4892837;29;20735;-68
2023/04/01 10:41:57;;;;;;;0.20;0.20;;;7.60;99.90;;;;;;4886963;29;20243;-71
2023/04/01 10:45:16;;;;;;;0.70;0.65;;;7.60;99.90;;;;;;4892591;29;20238;-69
2023/04/01 10:48:18;;;;;;;0.63;0.63;;;7.70;99.90;;;;;;4890199;29;20649;-68
2023/04/01 10:51:27;;;;;;;0.60;0.60;;;7.70;99.90;;;;;;4888953;29;20290;-70
2023/04/01 10:54:18;;;;;;;0.57;0.57;;;7.70;99.90;;;;;;4862805;29;20212;-69
2023/04/01 10:56:55;;;;;;;0.20;0.20;;;7.70;99.90;;;;;;4889051;29;20208;-70
2023/04/01 11:00:05;;;;;;;0.20;0.20;;;7.60;99.90;;;;;;4881214;29;20195;-70
2023/04/01 11:03:08;;;;;;;0.47;0.47;;;7.60;99.90;;;;;;4889236;29;20300;-70
2023/04/01 11:06:18;;;;;;;0.20;0.20;;;7.60;99.90;;;;;;4892234;29;20222;-69
2023/04/01 11:09:30;;;;;;;0.20;0.20;;;7.60;99.90;;;;;;4885398;29;20236;-69
2023/04/01 11:12:31;;;;;;;0.60;0.30;;;7.60;99.90;;;;;;4890466;29;20211;-70
2023/04/01 11:15:23;;;;;;;0.38;0.38;;;7.70;99.90;;;;;;4892815;29;20207;-70
2023/04/01 11:18:14;;;;;;;0.30;0.30;;;7.70;99.90;;;;;;4888100;29;20326;-68
2023/04/01 11:21:05;;;;;;;0.22;0.22;;;7.70;99.90;;;;;;4884633;29;20242;-70
2023/04/01 11:24:00;;;;;;;0.50;0.50;;;7.60;99.90;;;;;;4886458;29;20303;-70
2023/04/01 11:26:36;;;;;;;1.10;1.10;;;7.70;99.90;;;;;;4883385;29;20670;-69
2023/04/01 11:29:28;;;;;;;0.38;0.38;;;7.60;99.90;;;;;;4891297;29;20287;-70
2023/04/01 11:32:08;;;;;;;0.20;0.20;;;7.60;99.90;;;;;;4891295;29;20294;-72
2023/04/01 11:34:58;;;;;;;0.35;0.35;;;7.70;99.90;;;;;;4889727;29;20606;-70
2023/04/01 11:37:39;;;;;;;0.28;0.28;;;7.70;99.90;;;;;;4885627;29;20289;-70
2023/04/01 11:40:18;;;;;;;0.75;0.75;;;7.70;99.90;;;;;;4891499;29;20673;-70
2023/04/01 11:42:52;;;;;;;0.20;0.20;;;7.70;99.90;;;;;;4883622;29;20234;-70
2023/04/01 11:45:33;;;;;;;0.35;0.35;;;7.70;99.90;;;;;;4889631;29;20208;-70
2023/04/01 11:48:14;;;;;;;0.40;0.40;;;7.80;99.90;;;;;;4890874;29;20231;-68
2023/04/01 11:50:55;;;;;;;0.20;0.20;;;7.80;99.90;;;;;;4883680;29;20704;-68
2023/04/01 11:53:36;;;;;;;0.47;0.47;;;7.70;99.90;;;;;;4892011;29;20215;-69
2023/04/01 11:56:12;;;;;;;0.40;0.40;;;7.70;99.90;;;;;;4891505;29;20204;-69
2023/04/01 11:59:28;;;;;;;2.47;0.77;;;7.60;99.90;;;;;;4891538;29;20544;-69
2023/04/01 12:02:03;;;;;;;0.20;0.20;;;7.60;99.90;;;;;;4882009;29;20239;-69
2023/04/01 12:04:54;;;;;;;0.17;0.17;;;7.50;99.90;;;;;;4893216;29;20207;-69
2023/04/01 12:07:42;;;;;;;0.20;0.20;;;7.40;99.90;;;;;;4889068;29;20237;-70
2023/04/01 12:10:19;;;;;;;0.68;0.68;;;7.40;99.90;;;;;;4885298;29;20210;-69
2023/04/01 12:12:57;;;;;;;0.45;0.45;;;7.40;99.90;;;;;;4892133;29;20207;-70
2023/04/01 12:15:33;;;;;;;0.20;0.20;;;7.50;99.90;;;;;;4888351;29;20211;-70
2023/04/01 12:18:11;;;;;;;0.63;0.63;;;7.50;99.90;;;;;;4887973;29;20240;-70
2023/04/01 12:20:46;;;;;;;0.30;0.30;;;7.60;99.90;;;;;;4888987;29;20223;-69
2023/04/01 12:23:41;;;;;;;0.55;0.55;;;7.60;99.90;;;;;;4883611;29;20264;-69
2023/04/01 12:26:28;;;;;;;0.80;0.68;;;7.50;99.90;;;;;;4888722;29;20200;-70
2023/04/01 12:29:09;;;;;;;0.65;0.63;;;7.50;99.90;;;;;;4890145;29;20309;-68
2023/04/01 12:31:46;;;;;;;1.58;1.40;;;7.50;99.90;;;;;;4894472;29;20745;-70
2023/04/01 12:34:52;;;;;;;0.80;0.80;;;7.50;99.90;;;;;;4891519;29;20621;-69
2023/04/01 12:37:24;;;;;;;1.95;0.38;;;7.50;99.90;;;;;;4887431;29;20238;-69
2023/04/01 12:40:07;;;;;;;0.63;0.20;;;7.50;99.90;;;;;;4893475;29;20206;-69
2023/04/01 12:42:52;;;;;;;0.45;0.45;;;7.50;99.90;;;;;;4888595;29;20222;-70
2023/04/01 12:45:29;;;;;;;0.50;0.50;;;7.50;99.90;;;;;;4893019;29;20243;-70
2023/04/01 12:48:22;;;;;;;1.27;1.27;;;7.50;99.90;;;;;;4897045;29;20257;-70
2023/04/01 12:51:21;;;;;;;0.45;0.45;;;7.50;99.90;;;;;;4889024;29;20561;-71
2023/04/01 12:54:23;;;;;;;0.75;0.75;;;7.40;99.90;;;;;;4896688;29;20683;-71
2023/04/01 12:57:00;;;;;;;0.30;0.30;;;7.40;99.90;;;;;;4839393;29;20212;-71
2023/04/01 12:59:51;;;;;;;0.57;0.57;;;7.40;99.90;;;;;;4887045;29;20207;-68
2023/04/01 13:02:31;;;;;;;1.50;1.42;;;7.50;99.90;;;;;;4892522;29;20235;-72
2023/04/01 13:05:34;;;;;;;0.40;0.40;;;7.50;99.90;;;;;;4895665;29;20218;-69
2023/04/01 13:08:17;;;;;;;0.20;0.20;;;7.50;99.90;;;;;;4881468;29;20239;-68
2023/04/01 13:11:01;;;;;;;0.65;0.65;;;7.50;99.90;;;;;;4894676;29;20203;-70
2023/04/01 13:13:44;;;;;;;0.43;0.40;;;7.50;99.90;;;;;;4887757;29;20211;-68
2023/04/01 13:16:15;;;;;;;1.40;1.40;;;7.50;99.90;;;;;;4881942;29;20208;-68
2023/04/01 13:18:55;;;;;;;0.38;0.38;;;7.50;99.90;;;;;;4885156;29;20713;-70
2023/04/01 13:21:31;;;;;;;0.82;0.82;;;7.40;99.90;;;;;;4888495;29;20555;-72
2023/04/01 13:24:10;;;;;;;1.40;0.75;;;7.30;99.90;;;;;;4892941;29;20215;-68
2023/04/01 13:26:44;;;;;;;1.98;1.55;;;7.20;99.90;;;;;;4891314;29;20213;-69
2023/04/01 13:29:16;;;;;;;0.63;0.40;;;7.20;99.90;;;;;;4895910;29;20223;-69
2023/04/01 13:31:58;;;;;;;0.57;0.57;;;7.20;99.90;;;;;;4886957;29;20314;-69
2023/04/01 13:34:37;;;;;;;0.45;0.40;;;7.10;99.90;;;;;;4897367;29;20207;-69
2023/04/01 13:37:21;;;;;;;1.23;0.75;;;7.10;99.90;;;;;;4894511;29;20233;-69
2023/04/01 13:40:02;;;;;;;0.63;0.63;;;7.00;99.90;;;;;;4890941;29;20203;-68
2023/04/01 13:42:32;;;;;;;0.30;0.30;;;6.90;99.90;;;;;;4893454;29;20297;-68
2023/04/01 13:45:06;;;;;;;0.30;0.30;;;6.90;99.90;;;;;;4888604;29;20597;-68
2023/04/01 13:48:01;;;;;;;1.05;1.00;;;6.90;99.90;;;;;;4893678;29;20772;-70
2023/04/01 13:50:43;;;;;;;0.20;0.20;;;7.00;99.90;;;;;;4888284;29;20215;-69
2023/04/01 13:53:36;;;;;;;0.35;0.20;;;6.90;99.90;;;;;;4889572;29;20212;-68
2023/04/01 13:56:17;;;;;;;0.73;0.73;;;6.90;99.90;;;;;;4884373;29;20214;-67
2023/04/01 13:59:12;;;;;;;1.15;1.00;;;6.80;99.90;;;;;;4893238;29;20231;-70
2023/04/01 14:01:45;;;;;;;0.55;0.55;;;6.80;99.90;;;;;;4888697;29;21074;-69
2023/04/01 14:04:45;;;;;;;0.20;0.20;;;6.70;99.90;;;;;;4892472;29;20303;-68
2023/04/01 14:07:41;;;;;;;0.40;0.40;;;6.70;99.90;;;;;;4885592;29;20250;-67
2023/04/01 14:10:33;;;;;;;0.30;0.30;;;6.60;99.90;;;;;;4884053;29;20232;-68
2023/04/01 14:13:05;;;;;;;0.88;0.88;;;6.60;99.90;;;;;;4884165;29;20689;-68
2023/04/01 14:15:43;;;;;;;0.65;0.65;;;6.60;99.90;;;;;;4897132;29;20243;-67
2023/04/01 14:18:40;;;;;;;0.63;0.63;;;6.60;99.90;;;;;;4886999;29;20267;-68
2023/04/01 14:21:20;;;;;;;1.13;0.90;;;6.60;99.90;;;;;;4892310;29;20207;-68
2023/04/01 14:24:06;;;;;;;0.93;0.57;;;6.60;99.90;;;;;;4888803;29;20207;-67
2023/04/01 14:26:57;;;;;;;0.55;0.55;;;6.50;99.90;;;;;;4893158;29;20211;-68
2023/04/01 14:29:32;;;;;;;0.73;0.47;;;6.50;99.90;;;;;;4885750;29;20223;-69
2023/04/01 14:32:12;;;;;;;1.42;0.88;;;6.60;99.90;;;;;;4893539;29;20226;-68
2023/04/01 14:34:50;;;;;;;0.55;0.43;;;6.60;99.90;;;;;;4883252;29;20216;-68
2023/04/01 14:37:46;;;;;;;0.93;0.93;;;6.50;99.90;;;;;;4888819;29;20246;-67
2023/04/01 14:40:26;;;;;;;0.95;0.95;;;6.50;99.90;;;;;;4887684;29;20219;-68
2023/04/01 14:43:23;;;;;;;0.30;0.30;;;6.50;99.90;;;;;;4895474;29;20210;-68
2023/04/01 14:46:06;;;;;;;0.50;0.50;;;6.50;99.90;;;;;;4894322;29;20773;-68
2023/04/01 14:48:36;;;;;;;0.65;0.65;;;6.50;99.90;;;;;;4887641;29;20238;-67
2023/04/01 14:51:14;;;;;;;0.38;0.38;;;6.50;99.90;;;;;;4893512;29;20224;-67
2023/04/01 14:53:52;;;;;;;0.98;0.82;;;6.60;99.90;;;;;;4887074;29;20226;-67
2023/04/01 14:56:37;;;;;;;0.70;0.70;;;6.50;99.90;;;;;;4889211;29;20218;-68
2023/04/01 14:59:11;;;;;;;5.00;2.08;;;6.50;99.90;;;;;;4887981;29;20214;-67
2023/04/01 15:01:46;;;;;;;1.15;1.05;;;6.50;99.90;;;;;;4892296;29;20314;-68
2023/04/01 15:04:35;;;;;;;0.30;0.30;;;6.40;99.90;;;;;;4892520;29;20211;-69
2023/04/01 15:07:19;;;;;;;1.33;1.33;;;6.40;99.90;;;;;;4890915;29;20234;-69
2023/04/01 15:09:55;;;;;;;4.88;1.08;;;6.30;99.90;;;;;;4883716;29;20224;-70
2023/04/01 15:12:30;;;;;;;1.30;1.20;;;6.40;99.90;;;;;;4892592;29;20207;-68
2023/04/01 15:15:25;;;;;;;1.52;1.42;;;6.40;99.90;;;;;;4889025;29;20203;-69
2023/04/01 15:18:07;;;;;;;0.77;0.77;;;6.40;99.90;;;;;;4881928;29;20346;-69
2023/04/01 15:20:51;;;;;;;0.65;0.57;;;6.40;99.90;;;;;;4890757;29;20260;-68
2023/04/01 15:23:28;;;;;;;0.95;0.95;;;6.30;99.90;;;;;;4892442;29;20211;-68
2023/04/01 15:26:43;;;;;;;3.35;3.15;;;6.40;99.90;;;;;;4886592;29;20226;-70
2023/04/01 15:29:33;;;;;;;1.55;1.48;;;6.40;99.90;;;;;;4835754;29;20337;-69
2023/04/01 15:32:09;;;;;;;0.82;0.82;;;6.40;99.90;;;;;;4893232;29;20665;-69
2023/04/01 15:34:44;;;;;;;1.20;0.65;;;6.30;99.90;;;;;;4891217;29;20286;-69
2023/04/01 15:37:19;;;;;;;0.68;0.68;;;6.40;99.90;;;;;;4893432;29;20250;-69
2023/04/01 15:39:55;;;;;;;0.80;0.80;;;6.40;99.90;;;;;;4890541;29;20231;-69
2023/04/01 15:42:32;;;;;;;0.40;0.40;;;6.40;99.90;;;;;;4890316;29;20218;-69
2023/04/01 15:45:27;;;;;;;0.40;0.40;;;6.40;99.90;;;;;;4893846;29;20244;-70
2023/04/01 15:48:01;;;;;;;3.70;1.27;;;6.30;99.90;;;;;;4887251;29;20235;-69
2023/04/01 15:50:59;;;;;;;1.02;1.02;;;6.30;99.90;;;;;;4879596;29;20216;-69
2023/04/01 15:53:45;;;;;;;0.47;0.45;;;6.30;99.90;;;;;;4889148;29;20245;-68
2023/04/01 15:56:39;;;;;;;0.55;0.55;;;6.30;99.90;;;;;;4883731;29;20859;-69
2023/04/01 15:59:17;;;;;;;0.57;0.57;;;6.20;99.90;;;;;;4888838;29;20203;-70
2023/04/01 16:01:51;;;;;;;2.15;1.42;;;6.20;99.90;;;;;;4888957;29;20207;-69
2023/04/01 16:04:47;;;;;;;1.60;1.58;;;6.20;99.90;;;;;;4890529;29;20213;-69
2023/04/01 16:07:28;;;;;;;6.22;1.23;;;6.20;99.90;;;;;;4887473;29;20249;-68
2023/04/01 16:10:07;;;;;;;0.95;0.95;;;6.20;99.90;;;;;;4889975;29;20314;-68
2023/04/01 16:12:50;;;;;;;1.95;1.85;;;6.10;99.90;;;;;;4894113;29;20199;-69
2023/04/01 16:15:27;;;;;;;2.30;2.17;;;6.10;99.90;;;;;;4886138;29;20233;-69
2023/04/01 16:18:08;;;;;;;1.50;1.40;;;6.10;99.90;;;;;;4887008;29;20242;-69
2023/04/01 16:20:47;;;;;;;0.52;0.52;;;6.00;99.90;;;;;;4889763;29;20551;-68
2023/04/01 16:23:21;;;;;;;0.77;0.77;;;6.00;99.90;;;;;;4886409;29;20210;-68
2023/04/01 16:25:54;;;;;;;1.63;1.17;;;6.00;99.90;;;;;;4887070;29;20211;-68
2023/04/01 16:28:26;;;;;;;0.30;0.30;;;5.90;99.90;;;;;;4890252;29;20313;-68
2023/04/01 16:30:59;;;;;;;1.30;1.23;;;5.90;99.90;;;;;;4887580;29;20239;-69
2023/04/01 16:33:35;;;;;;;1.05;1.05;;;5.80;99.90;;;;;;4883991;29;20313;-68
2023/04/01 16:36:13;;;;;;;0.73;0.73;;;5.80;99.90;;;;;;4891883;29;20211;-69
2023/04/01 16:38:46;;;;;;;0.82;0.82;;;5.80;99.90;;;;;;4884449;29;20708;-69
2023/04/01 16:41:19;;;;;;;1.63;1.63;;;5.80;99.90;;;;;;4881293;29;20214;-70
2023/04/01 16:43:51;;;;;;;2.60;2.20;;;5.70;99.90;;;;;;4887590;29;20212;-69
2023/04/01 16:46:32;;;;;;;0.45;0.45;;;5.70;99.90;;;;;;4887160;29;20211;-69
2023/04/01 16:49:30;;;;;;;1.23;0.77;;;5.70;99.90;;;;;;4889033;29;20397;-69
2023/04/01 16:52:13;;;;;;;0.82;0.80;;;5.70;99.90;;;;;;4888864;29;20593;-69
2023/04/01 16:54:45;;;;;;;2.53;2.42;;;5.70;99.90;;;;;;4887016;29;20583;-69
2023/04/01 16:57:20;;;;;;;0.70;0.70;;;5.60;99.90;;;;;;4883970;29;20705;-69
2023/04/01 16:59:54;;;;;;;2.20;0.93;;;5.60;99.90;;;;;;4888561;29;20207;-69
2023/04/01 17:02:26;;;;;;;1.25;1.15;;;5.60;99.90;;;;;;4887828;29;20250;-69
2023/04/01 17:04:59;;;;;;;0.80;0.80;;;5.60;99.90;;;;;;4909072;23;20239;-71
2023/04/01 17:07:36;;;;;;;0.90;0.88;;;5.60;99.90;;;;;;4892759;29;20222;-71
2023/04/01 17:10:29;;;;;;;0.70;0.70;;;5.60;99.90;;;;;;4892379;29;20247;-71
2023/04/01 17:13:20;;;;;;;0.88;0.88;;;5.50;99.90;;;;;;4890424;29;20656;-71
2023/04/01 17:15:56;;;;;;;1.30;1.20;;;5.40;99.90;;;;;;4874342;29;20243;-72
2023/04/01 17:18:28;;;;;;;1.85;1.85;;;5.30;99.90;;;;;;4871473;29;20237;-71
2023/04/01 17:21:00;;;;;;;1.25;1.25;;;5.20;99.90;;;;;;4881397;29;20208;-72
2023/04/01 17:23:34;;;;;;;2.13;2.03;;;5.10;99.90;;;;;;4869929;29;20687;-73
2023/04/01 17:26:18;;;;;;;0.47;0.47;;;5.10;99.90;;;;;;4884381;29;20230;-73
2023/04/01 17:28:50;;;;;;;0.90;0.90;;;5.10;99.90;;;;;;4885851;29;20219;-72
2023/04/01 17:31:29;;;;;;;0.63;0.63;;;5.10;99.90;;;;;;4867228;29;20230;-73
2023/04/01 17:34:22;;;;;;;0.52;0.52;;;5.00;99.90;;;;;;4874331;29;20235;-72
2023/04/01 17:37:07;;;;;;;1.08;1.08;;;5.00;99.90;;;;;;4878604;29;20204;-72
2023/04/01 17:39:47;;;;;;;0.70;0.70;;;4.90;99.90;;;;;;4874719;29;20204;-72
2023/04/01 17:42:17;;;;;;;1.10;1.10;;;4.90;99.90;;;;;;4879142;29;20206;-72
2023/04/01 17:44:55;;;;;;;1.00;1.00;;;4.90;99.90;;;;;;4872656;29;20228;-72
2023/04/01 17:47:45;;;;;;;0.43;0.43;;;4.90;99.90;;;;;;4879415;29;20545;-72
2023/04/01 17:50:24;;;;;;;1.50;1.40;;;4.90;99.90;;;;;;4883981;29;20236;-72
2023/04/01 17:53:03;;;;;;;2.42;1.90;;;4.90;99.90;;;;;;4881915;29;20247;-72
2023/04/01 17:55:55;;;;;;;2.47;1.48;;;4.80;99.90;;;;;;4874060;29;20227;-71
2023/04/01 17:58:27;;;;;;;2.15;0.55;;;4.80;99.90;;;;;;4873334;29;20219;-72
2023/04/01 18:01:18;;;;;;;1.05;1.05;;;4.80;99.90;;;;;;4880678;29;20317;-72
2023/04/01 18:04:13;;;;;;;1.25;1.25;;;4.80;99.90;;;;;;4872534;29;20231;-72
2023/04/01 18:06:57;;;;;;;1.15;1.15;;;4.80;99.90;;;;;;4872779;29;20638;-72